createdAt,value
2018-05-23T00:00:17.121Z,4.03
2018-05-23T00:02:44.647Z,4.00
2018-05-23T00:05:12.949Z,3.53
2018-05-23T00:07:40.485Z,4.25
2018-05-23T00:10:08.870Z,4.20
2018-05-23T00:12:37.150Z,3.97
2018-05-23T00:15:04.696Z,4.12
2018-05-23T00:17:32.217Z,4.00
2018-05-23T00:19:59.740Z,4.10
2018-05-23T00:22:28.069Z,4.00
2018-05-23T00:24:55.591Z,4.00
2018-05-23T00:27:23.891Z,3.78
2018-05-23T00:29:52.211Z,4.00
2018-05-23T00:32:19.729Z,4.05
2018-05-23T00:34:47.229Z,4.22
2018-05-23T00:37:14.818Z,4.05
2018-05-23T00:39:43.841Z,4.45
2018-05-23T00:42:12.116Z,4.05
2018-05-23T00:44:39.678Z,4.45
2018-05-23T00:47:08.723Z,4.32
2018-05-23T00:49:36.226Z,4.47
2018-05-23T00:52:03.766Z,4.03
2018-05-23T00:54:31.283Z,4.00
2018-05-23T00:56:59.556Z,4.32
2018-05-23T00:59:27.094Z,4.20
2018-05-23T01:01:54.614Z,4.15
2018-05-23T01:04:22.130Z,4.65
2018-05-23T01:06:49.679Z,4.65
2018-05-23T01:09:17.186Z,4.45
2018-05-23T01:11:45.749Z,4.62
2018-05-23T01:14:13.278Z,5.20
2018-05-23T01:16:40.789Z,4.78
2018-05-23T01:19:09.090Z,4.55
2018-05-23T01:21:36.717Z,4.50
2018-05-23T01:24:04.230Z,4.95
2018-05-23T01:26:31.749Z,5.15
2018-05-23T01:28:59.287Z,4.72
2018-05-23T01:31:26.805Z,4.87
2018-05-23T01:33:55.080Z,5.20
2018-05-23T01:36:23.397Z,4.75
2018-05-23T01:38:50.915Z,4.78
2018-05-23T01:41:18.433Z,4.50
2018-05-23T01:43:45.983Z,4.47
2018-05-23T01:46:13.502Z,4.65
2018-05-23T01:48:52.933Z,4.85
2018-05-23T01:51:20.461Z,4.32
2018-05-23T01:53:48.017Z,4.30
2018-05-23T01:56:15.558Z,4.30
2018-05-23T01:58:43.841Z,4.60
2018-05-23T02:01:12.156Z,4.43
2018-05-23T02:03:39.691Z,4.30
2018-05-23T02:06:07.214Z,4.90
2018-05-23T02:08:34.731Z,4.53
2018-05-23T02:11:02.286Z,4.50
2018-05-23T02:13:30.847Z,4.72
2018-05-23T02:15:58.393Z,4.75
2018-05-23T02:18:25.930Z,4.85
2018-05-23T02:20:53.492Z,4.93
2018-05-23T02:23:20.985Z,5.20
2018-05-23T02:25:48.541Z,4.97
2018-05-23T02:28:16.066Z,5.10
2018-05-23T02:30:43.633Z,5.70
2018-05-23T02:33:11.171Z,5.25
2018-05-23T02:35:39.454Z,5.47
2018-05-23T02:38:07.763Z,5.47
2018-05-23T02:40:36.065Z,6.28
2018-05-23T02:43:03.612Z,5.90
2018-05-23T02:45:31.121Z,5.75
2018-05-23T02:47:58.673Z,5.72
2018-05-23T02:50:26.196Z,5.30
2018-05-23T02:52:53.717Z,5.60
2018-05-23T02:55:22.037Z,6.53
2018-05-23T02:57:49.567Z,6.00
2018-05-23T03:00:17.087Z,5.70
2018-05-23T03:02:44.654Z,5.82
2018-05-23T03:05:12.181Z,5.80
2018-05-23T03:07:40.475Z,5.53
2018-05-23T03:10:08.034Z,5.72
2018-05-23T03:12:36.310Z,5.37
2018-05-23T03:15:04.666Z,5.65
2018-05-23T03:17:32.218Z,5.57
2018-05-23T03:20:00.499Z,5.12
2018-05-23T03:22:28.025Z,5.45
2018-05-23T03:24:55.582Z,5.40
2018-05-23T03:27:23.113Z,5.82
2018-05-23T03:29:50.621Z,5.60
2018-05-23T03:32:18.198Z,6.30
2018-05-23T03:34:46.493Z,5.60
2018-05-23T03:37:14.781Z,5.72
2018-05-23T03:39:42.328Z,5.80
2018-05-23T03:42:09.862Z,5.50
2018-05-23T03:44:38.133Z,5.85
2018-05-23T03:47:06.439Z,5.25
2018-05-23T03:49:33.966Z,5.80
2018-05-23T03:52:02.253Z,5.53
2018-05-23T03:54:30.563Z,5.20
2018-05-23T03:56:58.074Z,5.43
2018-05-23T03:59:37.593Z,5.85
2018-05-23T04:02:16.889Z,5.80
2018-05-23T04:04:56.397Z,6.40
2018-05-23T04:07:35.698Z,5.68
2018-05-23T04:10:03.246Z,5.70
2018-05-23T04:12:30.768Z,5.80
2018-05-23T04:14:59.061Z,5.90
2018-05-23T04:17:27.393Z,5.53
2018-05-23T04:19:54.925Z,5.40
2018-05-23T04:22:22.457Z,5.80
2018-05-23T04:24:50.093Z,5.72
2018-05-23T04:27:18.310Z,6.93
2018-05-23T04:29:45.846Z,6.03
2018-05-23T04:32:13.401Z,6.35
2018-05-23T04:34:40.923Z,5.90
2018-05-23T04:37:08.453Z,6.30
2018-05-23T04:39:35.997Z,6.20
2018-05-23T04:42:03.526Z,6.10
2018-05-23T04:44:31.047Z,6.57
2018-05-23T04:46:59.359Z,5.90
2018-05-23T04:49:26.897Z,5.60
2018-05-23T04:51:55.182Z,6.37
2018-05-23T04:54:23.506Z,6.97
2018-05-23T04:56:51.043Z,7.10
2018-05-23T04:59:18.589Z,6.72
2018-05-23T05:01:46.900Z,6.93
2018-05-23T05:04:15.187Z,6.53
2018-05-23T05:06:42.702Z,6.70
2018-05-23T05:09:10.255Z,6.80
2018-05-23T05:11:37.778Z,7.03
2018-05-23T05:14:05.709Z,6.70
2018-05-23T05:16:34.021Z,6.72
2018-05-23T05:19:02.406Z,6.35
2018-05-23T05:21:29.942Z,6.30
2018-05-23T05:23:58.245Z,6.47
2018-05-23T05:26:26.527Z,6.20
2018-05-23T05:28:54.085Z,6.25
2018-05-23T05:31:22.482Z,6.60
2018-05-23T05:33:50.010Z,6.25
2018-05-23T05:36:17.519Z,7.00
2018-05-23T05:38:45.102Z,6.12
2018-05-23T05:41:12.590Z,6.35
2018-05-23T05:43:40.107Z,6.95
2018-05-23T05:46:07.682Z,6.55
2018-05-23T05:48:35.194Z,6.93
2018-05-23T05:51:02.715Z,6.40
2018-05-23T05:53:30.263Z,6.47
2018-05-23T05:55:57.777Z,6.60
2018-05-23T05:58:25.310Z,6.47
2018-05-23T06:00:52.963Z,6.47
2018-05-23T06:03:20.482Z,6.97
2018-05-23T06:05:48.005Z,6.72
2018-05-23T06:08:15.563Z,6.65
2018-05-23T06:10:43.098Z,6.60
2018-05-23T06:13:11.374Z,6.62
2018-05-23T06:15:39.685Z,6.90
2018-05-23T06:18:07.202Z,6.43
2018-05-23T06:20:35.577Z,6.43
2018-05-23T06:23:03.115Z,6.75
2018-05-23T06:25:31.472Z,7.10
2018-05-23T06:27:58.986Z,6.43
2018-05-23T06:30:26.731Z,6.57
2018-05-23T06:32:54.072Z,6.60
2018-05-23T06:35:21.583Z,6.32
2018-05-23T06:37:49.236Z,6.35
2018-05-23T06:40:16.713Z,6.72
2018-05-23T06:42:44.226Z,6.32
2018-05-23T06:45:11.803Z,6.25
2018-05-23T06:47:39.326Z,6.82
2018-05-23T06:50:07.691Z,6.95
2018-05-23T06:52:35.229Z,6.80
2018-05-23T06:55:02.746Z,6.50
2018-05-23T06:57:30.274Z,6.50
2018-05-23T06:59:57.820Z,6.25
2018-05-23T07:02:25.377Z,6.70
2018-05-23T07:04:52.901Z,6.55
2018-05-23T07:07:21.228Z,7.32
2018-05-23T07:09:48.737Z,6.80
2018-05-23T07:12:17.085Z,6.15
2018-05-23T07:14:44.624Z,6.22
2018-05-23T07:17:12.145Z,6.70
2018-05-23T07:19:40.423Z,6.20
2018-05-23T07:22:08.833Z,5.78
2018-05-23T07:24:36.366Z,6.37
2018-05-23T07:27:03.899Z,6.00
2018-05-23T07:29:31.463Z,5.18
2018-05-23T07:31:58.980Z,5.45
2018-05-23T07:34:27.271Z,5.55
2018-05-23T07:36:55.573Z,5.22
2018-05-23T07:39:23.114Z,5.40
2018-05-23T07:41:50.636Z,5.37
2018-05-23T07:44:18.200Z,5.57
2018-05-23T07:46:45.720Z,5.72
2018-05-23T07:49:13.229Z,5.32
2018-05-23T07:51:40.858Z,5.45
2018-05-23T07:54:08.377Z,5.57
2018-05-23T07:56:35.944Z,5.40
2018-05-23T07:59:03.444Z,5.68
2018-05-23T08:01:31.720Z,5.43
2018-05-23T08:04:00.021Z,5.78
2018-05-23T08:06:27.553Z,5.25
2018-05-23T08:08:55.078Z,5.70
2018-05-23T08:11:22.589Z,5.43
2018-05-23T08:13:50.902Z,5.60
2018-05-23T08:16:18.417Z,5.70
2018-05-23T08:18:46.721Z,5.25
2018-05-23T08:21:14.262Z,6.12
2018-05-23T08:23:42.618Z,5.78
2018-05-23T08:26:10.173Z,5.45
2018-05-23T08:28:37.730Z,5.57
2018-05-23T08:31:05.269Z,5.43
2018-05-23T08:33:32.781Z,5.18
2018-05-23T08:36:00.326Z,5.00
2018-05-23T08:38:27.838Z,4.70
2018-05-23T08:40:56.110Z,5.32
2018-05-23T08:43:24.418Z,5.28
2018-05-23T08:45:51.938Z,5.20
2018-05-23T08:48:20.974Z,5.40
2018-05-23T08:50:48.519Z,5.35
2018-05-23T08:53:16.813Z,4.90
2018-05-23T08:55:44.398Z,5.25
2018-05-23T08:58:11.938Z,4.60
2018-05-23T09:00:40.222Z,4.93
2018-05-23T09:03:08.531Z,5.30
2018-05-23T09:05:36.192Z,4.87
2018-05-23T09:08:03.829Z,4.60
2018-05-23T09:10:32.108Z,4.60
2018-05-23T09:13:00.422Z,4.90
2018-05-23T09:15:28.798Z,4.32
2018-05-23T09:17:56.379Z,4.35
2018-05-23T09:20:23.916Z,3.75
2018-05-23T09:22:52.212Z,3.97
2018-05-23T09:25:19.946Z,4.12
2018-05-23T09:27:48.262Z,4.28
2018-05-23T09:30:15.777Z,4.07
2018-05-23T09:32:43.281Z,4.47
2018-05-23T09:35:10.830Z,4.32
2018-05-23T09:37:39.113Z,3.35
2018-05-23T09:40:07.386Z,3.50
2018-05-23T09:42:35.685Z,3.25
2018-05-23T09:45:03.984Z,3.30
2018-05-23T09:47:31.558Z,2.90
2018-05-23T09:49:59.102Z,3.30
2018-05-23T09:52:26.642Z,3.30
2018-05-23T09:54:54.932Z,3.17
2018-05-23T09:57:22.507Z,3.12
2018-05-23T09:59:50.042Z,3.25
2018-05-23T10:02:17.574Z,3.15
2018-05-23T10:04:45.118Z,3.28
2018-05-23T10:07:12.653Z,3.05
2018-05-23T10:09:40.939Z,2.85
2018-05-23T10:12:09.299Z,2.53
2018-05-23T10:14:36.814Z,2.90
2018-05-23T10:17:04.334Z,2.80
2018-05-23T10:19:32.653Z,2.60
2018-05-23T10:22:00.168Z,3.05
2018-05-23T10:24:27.706Z,3.10
2018-05-23T10:26:55.394Z,2.50
2018-05-23T10:29:23.014Z,2.70
2018-05-23T10:31:50.532Z,2.20
2018-05-23T10:34:18.081Z,2.25
2018-05-23T10:36:45.605Z,2.45
2018-05-23T10:39:13.239Z,2.70
2018-05-23T10:41:40.769Z,2.90
2018-05-23T10:44:08.311Z,2.75
2018-05-23T10:46:35.811Z,2.42
2018-05-23T10:49:03.362Z,2.47
2018-05-23T10:51:30.875Z,2.33
2018-05-23T10:53:58.385Z,2.35
2018-05-23T10:56:25.982Z,2.70
2018-05-23T10:58:54.261Z,2.35
2018-05-23T11:01:22.615Z,2.78
2018-05-23T11:03:50.848Z,2.78
2018-05-23T11:06:18.372Z,2.50
2018-05-23T11:08:45.992Z,2.50
2018-05-23T11:11:14.563Z,2.67
2018-05-23T11:13:42.111Z,2.40
2018-05-23T11:16:10.414Z,2.47
2018-05-23T11:18:38.730Z,2.72
2018-05-23T11:21:06.250Z,2.58
2018-05-23T11:23:34.629Z,2.40
2018-05-23T11:26:02.940Z,2.60
2018-05-23T11:28:30.557Z,2.60
2018-05-23T11:30:58.090Z,2.60
2018-05-23T11:33:25.722Z,2.55
2018-05-23T11:35:54.045Z,2.70
2018-05-23T11:38:21.585Z,2.60
2018-05-23T11:40:49.143Z,2.30
2018-05-23T11:43:17.169Z,2.58
2018-05-23T11:45:44.678Z,2.50
2018-05-23T11:48:12.235Z,2.60
2018-05-23T11:50:40.535Z,2.50
2018-05-23T11:53:08.060Z,2.37
2018-05-23T11:55:35.589Z,2.05
2018-05-23T11:58:03.106Z,2.20
2018-05-23T12:00:31.386Z,2.20
2018-05-23T12:02:59.701Z,2.00
2018-05-23T12:05:27.218Z,1.90
2018-05-23T12:07:54.818Z,1.83
2018-05-23T12:10:22.475Z,2.20
2018-05-23T12:12:49.920Z,2.22
2018-05-23T12:15:18.203Z,2.37
2018-05-23T12:17:46.561Z,2.40
2018-05-23T12:20:14.083Z,2.60
2018-05-23T12:22:41.597Z,2.50
2018-05-23T12:25:09.916Z,2.50
2018-05-23T12:27:37.441Z,2.65
2018-05-23T12:30:05.090Z,2.72
2018-05-23T12:32:32.660Z,2.60
2018-05-23T12:35:00.210Z,2.37
2018-05-23T12:37:27.718Z,2.28
2018-05-23T12:39:56.039Z,2.40
2018-05-23T12:42:23.553Z,2.80
2018-05-23T12:44:51.066Z,2.08
2018-05-23T12:47:18.635Z,2.30
2018-05-23T12:49:46.155Z,2.60
2018-05-23T12:52:14.437Z,2.22
2018-05-23T12:54:42.849Z,2.30
2018-05-23T12:57:10.389Z,2.40
2018-05-23T12:59:38.665Z,2.58
2018-05-23T13:02:06.976Z,2.37
2018-05-23T13:04:34.549Z,2.42
2018-05-23T13:07:02.061Z,2.42
2018-05-23T13:09:29.600Z,2.80
2018-05-23T13:11:57.121Z,3.12
2018-05-23T13:14:24.640Z,2.75
2018-05-23T13:16:52.266Z,3.10
2018-05-23T13:19:19.773Z,2.72
2018-05-23T13:21:47.286Z,4.75
2018-05-23T13:24:14.837Z,2.80
2018-05-23T13:26:43.156Z,3.10
2018-05-23T13:29:10.682Z,3.17
2018-05-23T13:31:39.058Z,2.80
2018-05-23T13:34:08.494Z,3.15
2018-05-23T13:36:36.188Z,3.00
2018-05-23T13:39:07.559Z,3.25
2018-05-23T13:41:38.357Z,3.15
2018-05-23T13:44:07.021Z,2.40
2018-05-23T13:46:35.695Z,3.00
2018-05-23T13:49:04.037Z,3.08
2018-05-23T13:51:31.557Z,2.87
2018-05-23T13:53:59.908Z,3.65
2018-05-23T13:56:27.418Z,3.37
2018-05-23T13:58:54.938Z,3.40
2018-05-23T14:01:22.486Z,4.10
2018-05-23T14:03:50.013Z,3.75
2018-05-23T14:06:21.211Z,4.15
2018-05-23T14:08:49.277Z,3.80
2018-05-23T14:11:17.043Z,3.72
2018-05-23T14:13:45.453Z,3.90
2018-05-23T14:16:14.110Z,3.50
2018-05-23T14:18:41.628Z,4.00
2018-05-23T14:21:09.149Z,4.22
2018-05-23T14:23:36.685Z,3.67
2018-05-23T14:26:04.193Z,3.10
2018-05-23T14:28:31.725Z,3.45
2018-05-23T14:30:59.335Z,3.25
2018-05-23T14:33:27.777Z,3.33
2018-05-23T14:35:55.395Z,3.83
2018-05-23T14:38:22.851Z,3.92
2018-05-23T14:40:51.146Z,3.50
2018-05-23T14:43:19.433Z,3.12
2018-05-23T14:45:46.982Z,3.67
2018-05-23T14:48:15.266Z,3.50
2018-05-23T14:50:43.584Z,4.30
2018-05-23T14:53:11.135Z,4.40
2018-05-23T14:55:38.708Z,3.87
2018-05-23T14:58:06.225Z,4.37
2018-05-23T15:00:33.795Z,4.68
2018-05-23T15:03:01.334Z,5.12
2018-05-23T15:05:28.852Z,5.18
2018-05-23T15:07:56.374Z,4.85
2018-05-23T15:10:23.887Z,4.75
2018-05-23T15:12:51.408Z,4.87
2018-05-23T15:15:18.957Z,4.82
2018-05-23T15:17:46.468Z,5.00
2018-05-23T15:20:13.977Z,4.90
2018-05-23T15:22:41.523Z,5.07
2018-05-23T15:25:09.042Z,4.85
2018-05-23T15:27:37.331Z,4.62
2018-05-23T15:30:05.633Z,5.00
2018-05-23T15:32:33.139Z,4.95
2018-05-23T15:35:00.830Z,4.93
2018-05-23T15:37:28.367Z,4.65
2018-05-23T15:39:55.901Z,4.80
2018-05-23T15:42:23.463Z,4.60
2018-05-23T15:44:50.998Z,4.50
2018-05-23T15:47:19.273Z,4.40
2018-05-23T15:49:47.549Z,4.10
2018-05-23T15:52:15.898Z,4.50
2018-05-23T15:54:43.522Z,4.12
2018-05-23T15:57:11.059Z,4.50
2018-05-23T15:59:38.597Z,4.40
2018-05-23T16:02:06.116Z,4.30
2018-05-23T16:04:33.651Z,4.15
2018-05-23T16:07:01.212Z,4.40
2018-05-23T16:09:28.871Z,3.87
2018-05-23T16:11:56.389Z,3.92
2018-05-23T16:14:24.696Z,4.18
2018-05-23T16:16:52.246Z,5.25
2018-05-23T16:19:19.794Z,4.65
2018-05-23T16:21:47.345Z,4.70
2018-05-23T16:24:15.621Z,4.40
2018-05-23T16:26:43.900Z,4.12
2018-05-23T16:29:12.202Z,4.18
2018-05-23T16:31:39.713Z,4.57
2018-05-23T16:34:07.240Z,5.10
2018-05-23T16:36:34.953Z,5.28
2018-05-23T16:39:02.664Z,4.68
2018-05-23T16:41:30.177Z,4.47
2018-05-23T16:43:57.733Z,4.20
2018-05-23T16:46:25.266Z,4.15
2018-05-23T16:48:52.825Z,6.95
2018-05-23T16:51:21.153Z,5.05
2018-05-23T16:53:48.670Z,4.85
2018-05-23T16:56:16.192Z,4.25
2018-05-23T16:58:43.743Z,4.47
2018-05-23T17:01:11.262Z,4.50
2018-05-23T17:03:38.791Z,4.28
2018-05-23T17:06:06.343Z,4.60
2018-05-23T17:08:34.630Z,4.22
2018-05-23T17:11:02.262Z,5.68
2018-05-23T17:13:29.806Z,4.50
2018-05-23T17:15:57.313Z,4.07
2018-05-23T17:18:24.836Z,4.05
2018-05-23T17:20:52.376Z,4.20
2018-05-23T17:23:20.669Z,4.25
2018-05-23T17:25:48.251Z,4.30
2018-05-23T17:28:15.810Z,4.32
2018-05-23T17:30:43.328Z,4.32
2018-05-23T17:33:11.665Z,4.37
2018-05-23T17:35:39.185Z,4.55
2018-05-23T17:38:06.939Z,4.03
2018-05-23T17:40:34.463Z,4.32
2018-05-23T17:43:02.011Z,4.55
2018-05-23T17:45:30.316Z,4.22
2018-05-23T17:47:57.830Z,4.53
2018-05-23T17:50:26.131Z,3.83
2018-05-23T17:52:53.661Z,4.53
2018-05-23T17:55:21.186Z,4.60
2018-05-23T17:57:48.727Z,5.20
2018-05-23T18:00:16.262Z,5.18
2018-05-23T18:02:44.540Z,5.03
2018-05-23T18:05:12.087Z,5.22
2018-05-23T18:07:39.598Z,5.50
2018-05-23T18:10:07.117Z,6.10
2018-05-23T18:12:34.665Z,6.43
2018-05-23T18:15:02.178Z,5.97
2018-05-23T18:17:30.840Z,6.10
2018-05-23T18:19:58.464Z,5.97
2018-05-23T18:22:26.022Z,5.60
2018-05-23T18:24:53.533Z,7.07
2018-05-23T18:27:21.119Z,5.80
2018-05-23T18:32:22.381Z,5.75
2018-05-23T18:34:50.665Z,5.37
2018-05-23T18:37:18.175Z,5.82
2018-05-23T18:39:45.806Z,5.50
2018-05-23T18:42:14.080Z,5.47
2018-05-23T18:44:42.354Z,5.47
2018-05-23T18:47:09.896Z,5.37
2018-05-23T18:49:37.415Z,5.90
2018-05-23T18:52:04.931Z,5.62
2018-05-23T18:54:34.031Z,6.03
2018-05-23T18:57:01.561Z,5.40
2018-05-23T18:59:29.239Z,5.50
2018-05-23T19:01:56.779Z,5.50
2018-05-23T19:04:24.298Z,5.57
2018-05-23T19:06:52.582Z,5.95
2018-05-23T19:09:20.153Z,5.70
2018-05-23T19:11:47.668Z,5.55
2018-05-23T19:16:39.699Z,5.82
2018-05-23T19:19:07.215Z,5.40
2018-05-23T19:21:34.732Z,5.95
2018-05-23T19:24:02.278Z,6.10
2018-05-23T19:26:30.558Z,5.87
2018-05-23T19:28:58.840Z,6.00
2018-05-23T19:31:27.142Z,6.40
2018-05-23T19:33:54.657Z,6.03
2018-05-23T19:36:22.166Z,6.57
2018-05-23T19:38:49.707Z,7.07
2018-05-23T19:41:18.081Z,6.43
2018-05-23T19:43:47.102Z,7.12
2018-05-23T19:46:15.422Z,6.47
2018-05-23T19:48:42.926Z,6.87
2018-05-23T19:51:10.442Z,7.53
2018-05-23T19:53:37.974Z,7.20
2018-05-23T19:56:06.268Z,6.93
2018-05-23T19:58:33.815Z,7.25
2018-05-23T20:01:02.146Z,7.62
2018-05-23T20:03:29.701Z,7.37
2018-05-23T20:05:57.255Z,6.90
2018-05-23T20:08:24.831Z,7.62
2018-05-23T20:10:52.395Z,7.60
2018-05-23T20:13:19.935Z,7.40
2018-05-23T20:15:47.471Z,7.62
2018-05-23T20:18:14.999Z,7.43
2018-05-23T20:20:42.537Z,7.20
2018-05-23T20:23:10.129Z,8.07
2018-05-23T20:25:37.642Z,7.43
2018-05-23T20:28:05.921Z,7.72
2018-05-23T20:30:34.325Z,7.50
2018-05-23T20:33:01.880Z,7.95
2018-05-23T20:35:30.244Z,8.07
2018-05-23T20:37:57.726Z,7.78
2018-05-23T20:40:26.051Z,7.93
2018-05-23T20:42:53.726Z,8.07
2018-05-23T20:45:21.363Z,7.55
2018-05-23T20:47:48.896Z,8.07
2018-05-23T20:50:18.406Z,7.97
2018-05-23T20:52:46.719Z,8.15
2018-05-23T20:55:14.234Z,8.60
2018-05-23T20:57:41.758Z,8.27
2018-05-23T21:00:09.304Z,8.48
2018-05-23T21:02:36.824Z,8.93
2018-05-23T21:05:04.396Z,8.90
2018-05-23T21:07:31.921Z,8.38
2018-05-23T21:09:59.448Z,8.60
2018-05-23T21:12:27.764Z,8.30
2018-05-23T21:14:55.334Z,8.60
2018-05-23T21:17:22.876Z,8.57
2018-05-23T21:19:50.399Z,8.43
2018-05-23T21:22:17.954Z,8.98
2018-05-23T21:24:45.470Z,8.68
2018-05-23T21:27:13.017Z,8.50
2018-05-23T21:29:40.575Z,8.38
2018-05-23T21:32:08.102Z,8.65
2018-05-23T21:34:36.425Z,8.60
2018-05-23T21:37:04.733Z,8.82
2018-05-23T21:39:32.290Z,8.73
2018-05-23T21:41:59.824Z,10.02
2018-05-23T21:44:28.239Z,9.40
2018-05-23T21:46:56.535Z,9.85
2018-05-23T21:49:24.085Z,9.00
2018-05-23T21:51:51.679Z,9.48
2018-05-23T21:54:19.208Z,9.15
2018-05-23T21:56:46.730Z,9.30
2018-05-23T21:59:14.291Z,8.75
2018-05-23T22:01:42.601Z,9.23
2018-05-23T22:04:10.895Z,9.82
2018-05-23T22:06:38.454Z,9.48
2018-05-23T22:09:06.777Z,10.18
2018-05-23T22:11:35.062Z,9.23
2018-05-23T22:14:02.628Z,9.63
2018-05-23T22:16:30.171Z,9.77
2018-05-23T22:18:57.696Z,9.60
2018-05-23T22:21:26.011Z,9.35
2018-05-23T22:23:53.533Z,9.43
2018-05-23T22:26:21.061Z,9.85
2018-05-23T22:28:48.622Z,9.30
2018-05-23T22:31:16.154Z,10.20
2018-05-23T22:33:43.726Z,9.98
2018-05-23T22:36:11.278Z,10.00
2018-05-23T22:38:39.558Z,9.63
2018-05-23T22:41:07.092Z,9.38
2018-05-23T22:43:34.727Z,10.00
2018-05-23T22:46:02.358Z,9.50
2018-05-23T22:48:30.653Z,9.80
2018-05-23T22:50:58.223Z,9.93
2018-05-23T22:53:25.753Z,9.93
2018-05-23T22:55:54.046Z,9.63
2018-05-23T22:58:22.361Z,8.93
2018-05-23T23:00:49.893Z,9.23
2018-05-23T23:03:18.178Z,9.20
2018-05-23T23:05:45.734Z,9.23
2018-05-23T23:08:14.066Z,9.40
2018-05-23T23:10:41.600Z,9.82
2018-05-23T23:13:09.164Z,9.30
2018-05-23T23:15:36.766Z,9.65
2018-05-23T23:18:04.318Z,9.65
2018-05-23T23:20:31.881Z,9.05
2018-05-23T23:22:59.438Z,9.70
2018-05-23T23:25:26.982Z,9.55
2018-05-23T23:27:54.813Z,10.35
2018-05-23T23:30:22.350Z,9.10
2018-05-23T23:32:49.888Z,9.68
2018-05-23T23:35:17.448Z,9.75
2018-05-23T23:37:45.398Z,9.88
2018-05-23T23:40:13.690Z,9.90
2018-05-23T23:42:42.005Z,9.25
2018-05-23T23:45:10.294Z,9.98
2018-05-23T23:47:37.917Z,9.52
2018-05-23T23:50:07.051Z,10.07
2018-05-23T23:52:34.581Z,9.38
2018-05-23T23:55:02.871Z,9.85
2018-05-23T23:57:31.186Z,10.05
2018-05-23T23:59:58.718Z,10.07
